Stations météo

réclame
Mon MeteoGroup
Dunstaffnage, Grande-Bretagne (99006): Température de l'air & dewpoint: 14.05.2019 05:00:00 - 20.05.2019 05:00:00 (BST)Dunstaffnage, Grande-Bretagne (99006): Température de l'air -20cm: 14.05.2019 05:00:00 - 20.05.2019 05:00:00 (BST)Dunstaffnage, Grande-Bretagne (99006): Vitesse du vent: 14.05.2019 05:00:00 - 20.05.2019 05:00:00 (BST)Dunstaffnage, Grande-Bretagne (99006): Direction du vent: 14.05.2019 05:00:00 - 20.05.2019 05:00:00 (BST)Dunstaffnage, Grande-Bretagne (99006): Quantités de précipitations: 14.05.2019 05:00:00 - 20.05.2019 05:00:00 (BST)
Date & Time tt [°C] td [°C] tt -20cm [°C] ff [km/h] ff [knt] dd rr [mm]
20.05.2019 05:00:00 9,7 8,9 - 21 11 W 0,0
20.05.2019 04:00:00 9,9 9,1 - 15 8 W 0,0
20.05.2019 03:00:00 10,0 9,2 - 5 3 SSW 0,0
20.05.2019 02:00:00 10,0 9,2 - 5 3 SSW 0,0
20.05.2019 01:00:00 10,1 9,3 - 8 4 SSW 0,0
20.05.2019 00:00:00 10,2 9,3 - 8 4 SW 0,0
19.05.2019 23:00:00 10,4 9,3 - 8 4 SW 0,0
19.05.2019 22:00:00 10,5 9,3 - 8 4 SSW 0,0
19.05.2019 21:00:00 10,7 9,1 - 9 5 SW 0,0
19.05.2019 20:00:00 11,4 9,4 - 9 5 SW 0,0
19.05.2019 19:00:00 11,6 9,3 - 15 8 SW 0,0
19.05.2019 18:00:00 12,0 9,7 - 11 6 SW 0,0
19.05.2019 17:00:00 12,4 10,0 - 13 7 WSW 0,0
19.05.2019 16:00:00 12,9 9,8 - 15 8 SW 0,0
19.05.2019 15:00:00 13,4 10,3 - 15 8 SW 0,0
19.05.2019 14:00:00 13,4 9,8 - 15 8 WSW 0,0
19.05.2019 13:00:00 12,4 10,1 - 13 7 WSW 0,0
19.05.2019 12:00:00 11,8 9,5 - 13 7 SW 0,0
19.05.2019 11:00:00 12,4 10,0 - 11 6 WSW 0,0
19.05.2019 10:00:00 12,0 10,4 12,5 8 4 SSW 0,0
19.05.2019 09:00:00 10,7 10,2 - 9 5 WSW 0,2
19.05.2019 08:00:00 9,9 9,5 - 4 2 SW 0,0
19.05.2019 07:00:00 9,7 9,3 - 2 1 S 0,2
19.05.2019 06:00:00 9,5 9,0 - 2 1 ENE 0,4
19.05.2019 05:00:00 9,3 8,9 - 0 0 N 0,2
19.05.2019 04:00:00 9,4 8,9 - 2 1 SW 0,4
19.05.2019 03:00:00 9,5 9,0 - 2 1 SW 0,4
19.05.2019 02:00:00 9,5 8,9 - 2 1 WSW 0,0
19.05.2019 01:00:00 9,5 8,8 - 2 1 WSW 0,0
19.05.2019 00:00:00 9,6 8,9 - 4 2 SSW 0,2
18.05.2019 23:00:00 9,8 9,0 - 5 3 SW 0,0
18.05.2019 22:00:00 10,3 9,3 - 9 5 WSW 0,0
18.05.2019 21:00:00 10,8 9,4 - 9 5 W 0,0
18.05.2019 20:00:00 11,3 9,4 - 9 5 W 0,0
18.05.2019 19:00:00 12,0 9,2 - 8 4 W 0,0
18.05.2019 18:00:00 12,3 9,5 - 4 2 NE 0,2
18.05.2019 17:00:00 11,9 9,5 - 5 3 NNE 0,0
18.05.2019 16:00:00 12,1 9,4 - 8 4 N 0,2
18.05.2019 15:00:00 11,6 9,8 - 8 4 N 0,2
18.05.2019 14:00:00 11,4 10,4 - 8 4 NNE 0,8
18.05.2019 13:00:00 10,7 9,5 - 5 3 N 1,6
18.05.2019 12:00:00 10,9 10,0 - 2 1 NE 2,0
18.05.2019 11:00:00 10,3 9,2 - 5 3 NE 1,8
18.05.2019 10:00:00 10,3 8,9 12,7 9 5 N 1,0
18.05.2019 09:00:00 10,3 9,5 - 4 2 SSW 0,2
18.05.2019 08:00:00 10,0 9,1 - 4 2 E 0,0
18.05.2019 07:00:00 10,0 8,7 - 4 2 SSW 0,4
18.05.2019 06:00:00 10,2 8,8 - 8 4 N 0,6
18.05.2019 05:00:00 10,1 8,6 - 4 2 N 1,0
18.05.2019 04:00:00 10,4 8,3 - 13 7 NE 0,6
18.05.2019 03:00:00 10,0 8,7 - 2 1 SSE 0,2
18.05.2019 02:00:00 10,1 7,9 - 4 2 SSW 0,4
18.05.2019 01:00:00 11,3 5,8 - 5 3 NW 0,4
18.05.2019 00:00:00 13,6 2,9 - 16 9 E 0,0
17.05.2019 23:00:00 11,7 6,5 - 2 1 ENE 0,0
17.05.2019 22:00:00 12,7 6,7 - 5 3 ESE 0,0
17.05.2019 21:00:00 14,4 6,6 - 9 5 S 0,0
17.05.2019 20:00:00 14,3 6,8 - 15 8 W 0,0
17.05.2019 19:00:00 15,5 6,7 - 11 6 W 0,0
17.05.2019 18:00:00 17,0 5,6 - 18 10 W 0,0
17.05.2019 17:00:00 17,7 5,7 - 21 11 WNW 0,0
17.05.2019 16:00:00 18,0 5,1 - 9 5 NW 0,0
17.05.2019 15:00:00 18,4 6,0 - 13 7 WNW 0,0
17.05.2019 14:00:00 16,2 5,1 - 15 8 WNW 0,0
17.05.2019 13:00:00 15,1 4,3 - 9 5 NW 0,0
17.05.2019 12:00:00 15,1 4,0 - 5 3 N 0,0
17.05.2019 11:00:00 13,6 3,8 - 9 5 NE 0,0
17.05.2019 10:00:00 13,0 4,7 12,5 4 2 NE 0,0
17.05.2019 09:00:00 11,2 4,1 - 8 4 NNW 0,0
17.05.2019 08:00:00 10,4 4,3 - 13 7 ESE 0,0
17.05.2019 07:00:00 9,7 5,3 - 8 4 E 0,0
17.05.2019 06:00:00 9,6 4,9 - 13 7 ESE 0,0
17.05.2019 05:00:00 9,7 4,8 - 5 3 NE 0,0
17.05.2019 04:00:00 9,4 4,8 - 11 6 E 0,0
17.05.2019 03:00:00 9,9 4,7 - 13 7 ESE 0,0
17.05.2019 02:00:00 10,4 5,0 - 16 9 E 0,0
17.05.2019 01:00:00 11,6 5,3 - 18 10 E 0,0
17.05.2019 00:00:00 12,1 5,5 - 8 4 ENE 0,0
16.05.2019 23:00:00 12,6 5,4 - 9 5 E 0,0
16.05.2019 22:00:00 14,1 4,9 - 15 8 ESE 0,0
16.05.2019 21:00:00 14,8 5,9 - 11 6 ESE 0,0
16.05.2019 20:00:00 14,1 7,6 - 9 5 SSW 0,0
16.05.2019 19:00:00 15,3 8,5 - 15 8 SW 0,0
16.05.2019 18:00:00 17,9 7,9 - 9 5 N 0,0
16.05.2019 17:00:00 18,2 8,8 - 9 5 W 0,0
16.05.2019 16:00:00 17,3 8,9 - 13 7 W 0,0
16.05.2019 15:00:00 18,5 7,4 - 16 9 E 0,0
16.05.2019 14:00:00 19,4 8,8 - 21 11 ESE 0,0
16.05.2019 13:00:00 18,4 9,5 - 13 7 ESE 0,0
16.05.2019 12:00:00 18,3 9,6 - 22 12 E 0,0
16.05.2019 11:00:00 18,0 9,6 - 21 11 E 0,0
16.05.2019 10:00:00 15,9 8,6 12,4 18 10 ESE 0,0
16.05.2019 09:00:00 15,8 8,6 - 22 12 E 0,0
16.05.2019 08:00:00 14,6 8,0 - 21 11 E 0,0
16.05.2019 07:00:00 14,2 7,7 - 22 12 ESE 0,0
16.05.2019 06:00:00 12,9 8,2 - 11 6 ENE 0,0
16.05.2019 05:00:00 13,9 7,9 - 22 12 E 0,0
16.05.2019 04:00:00 12,0 8,8 - 5 3 ENE 0,0
16.05.2019 03:00:00 12,7 8,6 - 11 6 W 0,0
16.05.2019 02:00:00 11,0 8,9 - 5 3 E 0,0
16.05.2019 01:00:00 11,0 8,6 - 2 1 S 0,0
16.05.2019 00:00:00 11,3 8,8 - 2 1 SSE 0,0
15.05.2019 23:00:00 12,4 9,2 - 2 1 W 0,0
15.05.2019 22:00:00 13,0 8,5 - 4 2 ENE 0,0
15.05.2019 21:00:00 14,1 8,8 - 4 2 ENE 0,0
15.05.2019 20:00:00 15,9 8,5 - 8 4 NNW 0,0
15.05.2019 19:00:00 17,6 8,5 - 15 8 SW 0,0
15.05.2019 18:00:00 18,1 9,6 - 13 7 WSW 0,0
15.05.2019 17:00:00 19,0 9,2 - 11 6 WSW 0,0
15.05.2019 16:00:00 18,6 7,4 - 22 12 WSW 0,0
15.05.2019 15:00:00 21,0 8,7 - 16 9 WSW 0,0
15.05.2019 14:00:00 18,8 8,2 - 13 7 NW 0,0
15.05.2019 13:00:00 18,0 6,3 - 11 6 WNW 0,0
15.05.2019 12:00:00 19,5 8,5 - 13 7 W 0,0
15.05.2019 11:00:00 16,3 8,5 - 11 6 WNW 0,0
15.05.2019 10:00:00 16,1 5,4 11,7 5 3 NW 0,0
15.05.2019 09:00:00 15,2 7,4 - 2 1 E 0,0
15.05.2019 08:00:00 12,9 7,5 - 9 5 ENE 0,0
15.05.2019 07:00:00 11,3 7,1 - 9 5 E 0,0
15.05.2019 06:00:00 6,7 4,8 - 2 1 E 0,0
15.05.2019 05:00:00 6,2 4,1 - 2 1 SE 0,0
15.05.2019 04:00:00 6,7 3,7 - 4 2 SSE 0,0
15.05.2019 03:00:00 7,7 3,9 - 2 1 WNW 0,0
15.05.2019 02:00:00 7,5 3,5 - 0 0 N 0,0
15.05.2019 01:00:00 7,8 4,3 - 2 1 S 0,0
15.05.2019 00:00:00 8,3 5,0 - 2 1 SSW 0,0
14.05.2019 23:00:00 9,5 6,7 - 2 1 SW 0,0
14.05.2019 22:00:00 10,7 7,1 - 2 1 SSW 0,0
14.05.2019 21:00:00 11,8 7,7 - 8 4 E 0,0
14.05.2019 20:00:00 14,8 6,3 - 8 4 WNW 0,0
14.05.2019 19:00:00 17,0 6,4 - 15 8 WSW 0,0
14.05.2019 18:00:00 17,8 6,7 - 22 12 WSW 0,0
14.05.2019 17:00:00 18,7 7,5 - 24 13 WSW 0,0
14.05.2019 16:00:00 19,3 8,2 - 16 9 W 0,0
14.05.2019 15:00:00 18,8 8,3 - 15 8 W 0,0
14.05.2019 14:00:00 17,9 7,1 - 9 5 WNW 0,0
14.05.2019 13:00:00 18,4 7,4 - 11 6 WNW 0,0
14.05.2019 12:00:00 15,8 6,2 - 8 4 NW 0,0
14.05.2019 11:00:00 14,8 5,9 - 11 6 WNW 0,0
14.05.2019 10:00:00 15,3 6,7 11,0 5 3 ENE 0,0
14.05.2019 09:00:00 12,9 7,1 - 9 5 NE 0,0
14.05.2019 08:00:00 11,2 6,3 - 11 6 NE 0,0
14.05.2019 07:00:00 10,7 5,3 - 8 4 E 0,0
14.05.2019 06:00:00 8,0 5,1 - 2 1 SW 0,0
14.05.2019 05:00:00 6,3 4,3 - 2 1 E 0,0

tt = Température de l'air
td = dewpoint
tt -20cm = Température de l'air -20cm
ff = Vitesse du vent
dd = Direction du vent
rr = Quantités de précipitations

stations d'obs. à proximité